createdAt,value
2022-08-17T00:02:26.502Z,97920.06
2022-08-17T00:05:30.679Z,97924.03
2022-08-17T00:08:37.864Z,97920.44
2022-08-17T00:11:43.784Z,97920.88
2022-08-17T00:15:10.715Z,97929.16
2022-08-17T00:19:01.091Z,97917.69
2022-08-17T00:22:30.795Z,97924.44
2022-08-17T00:25:03.234Z,97914.97
2022-08-17T00:28:06.533Z,97914.16
2022-08-17T00:31:11.013Z,97909.00
2022-08-17T00:34:13.942Z,97905.84
2022-08-17T00:37:16.711Z,97908.22
2022-08-17T00:40:21.559Z,97906.66
2022-08-17T00:43:32.295Z,97905.06
2022-08-17T00:46:37.805Z,97909.84
2022-08-17T00:49:40.749Z,97902.31
2022-08-17T00:52:47.059Z,97901.13
2022-08-17T00:55:51.234Z,97899.56
2022-08-17T00:58:55.651Z,97909.03
2022-08-17T01:01:59.272Z,97909.03
2022-08-17T01:05:02.309Z,97908.63
2022-08-17T01:08:05.667Z,97905.50
2022-08-17T01:11:10.250Z,97907.47
2022-08-17T01:14:13.345Z,97901.13
2022-08-17T01:17:16.000Z,97893.59
2022-08-17T01:20:19.232Z,97903.88
2022-08-17T01:23:23.743Z,97894.03
2022-08-17T01:26:30.227Z,97892.44
2022-08-17T01:29:33.894Z,97895.19
2022-08-17T01:32:37.093Z,97896.34
2022-08-17T01:35:47.158Z,97905.47
2022-08-17T01:38:52.194Z,97903.88
2022-08-17T01:41:57.417Z,97903.88
2022-08-17T01:45:04.653Z,97900.72
2022-08-17T01:48:08.740Z,97911.38
2022-08-17T01:51:11.611Z,97906.25
2022-08-17T01:54:20.371Z,97904.66
2022-08-17T01:57:25.496Z,97907.41
2022-08-17T02:00:59.870Z,97901.84
2022-08-17T02:04:00.926Z,97905.81
2022-08-17T02:07:04.392Z,97902.69
2022-08-17T02:10:19.833Z,97906.22
2022-08-17T02:13:29.645Z,97915.72
2022-08-17T02:16:37.703Z,97910.59
2022-08-17T02:19:41.850Z,97918.09
2022-08-17T02:22:46.822Z,97917.31
2022-08-17T02:25:51.142Z,97916.13
2022-08-17T02:28:55.365Z,97912.97
2022-08-17T02:32:02.243Z,97920.88
2022-08-17T02:35:09.620Z,97914.94
2022-08-17T02:38:12.419Z,97912.16
2022-08-17T02:41:18.802Z,97914.16
2022-08-17T02:44:39.758Z,97913.72
2022-08-17T02:47:48.404Z,97905.44
2022-08-17T02:50:51.309Z,97909.00
2022-08-17T02:54:02.205Z,97913.34
2022-08-17T02:57:20.945Z,97910.56
2022-08-17T03:00:26.985Z,97913.75
2022-08-17T03:03:29.653Z,97915.69
2022-08-17T03:06:33.990Z,97909.78
2022-08-17T03:09:38.010Z,97920.81
2022-08-17T03:12:44.641Z,97915.28
2022-08-17T03:15:50.724Z,97912.13
2022-08-17T03:18:55.012Z,97912.16
2022-08-17T03:22:01.398Z,97913.75
2022-08-17T03:25:27.638Z,97916.50
2022-08-17T03:28:33.588Z,97920.47
2022-08-17T03:31:37.021Z,97919.25
2022-08-17T03:34:40.123Z,97924.78
2022-08-17T03:37:43.995Z,97938.63
2022-08-17T03:40:57.603Z,97939.38
2022-08-17T03:44:06.472Z,97943.75
2022-08-17T03:47:40.949Z,97940.97
2022-08-17T03:51:09.332Z,97939.38
2022-08-17T03:54:38.609Z,97938.56
2022-08-17T03:57:48.920Z,97942.03
2022-08-17T04:00:53.002Z,97942.84
2022-08-17T04:03:55.645Z,97951.09
2022-08-17T04:07:02.377Z,97956.16
2022-08-17T04:10:05.498Z,97960.84
2022-08-17T04:13:10.073Z,97961.59
2022-08-17T04:16:15.709Z,97957.72
2022-08-17T04:19:18.686Z,97958.56
2022-08-17T04:22:31.882Z,97957.44
2022-08-17T04:25:39.035Z,97960.25
2022-08-17T04:28:42.277Z,97980.41
2022-08-17T04:31:46.273Z,97979.94
2022-08-17T04:34:49.828Z,97972.75
2022-08-17T04:37:53.850Z,97989.81
2022-08-17T04:41:15.405Z,97992.59
2022-08-17T04:44:37.139Z,97997.31
2022-08-17T04:47:42.782Z,98001.66
2022-08-17T04:50:46.819Z,97998.56
2022-08-17T04:54:09.841Z,97995.84
2022-08-17T04:57:12.705Z,97996.66
2022-08-17T05:00:16.164Z,98003.47
2022-08-17T05:03:20.884Z,98011.81
2022-08-17T05:06:27.071Z,98011.44
2022-08-17T05:09:30.454Z,98009.47
2022-08-17T05:12:34.497Z,98005.56
2022-08-17T05:15:39.289Z,98013.06
2022-08-17T05:18:50.308Z,98007.13
2022-08-17T05:21:53.045Z,98007.94
2022-08-17T05:24:55.800Z,98008.72
2022-08-17T05:27:59.439Z,98005.16
2022-08-17T05:31:05.135Z,98017.41
2022-08-17T05:34:09.085Z,98018.19
2022-08-17T05:37:14.613Z,98022.16
2022-08-17T05:40:18.343Z,98034.84
2022-08-17T05:43:24.080Z,98026.91
2022-08-17T05:46:29.528Z,98013.44
2022-08-17T05:49:34.268Z,98008.16
2022-08-17T05:52:43.823Z,98011.63
2022-08-17T05:55:51.748Z,98011.56
2022-08-17T05:59:02.150Z,98022.50
2022-08-17T06:02:10.625Z,98025.16
2022-08-17T06:05:34.856Z,98024.69
2022-08-17T06:08:44.666Z,98036.53
2022-08-17T06:11:53.443Z,98042.06
2022-08-17T06:15:07.511Z,98048.94
2022-08-17T06:18:17.202Z,98062.38
2022-08-17T06:21:24.030Z,98057.16
2022-08-17T06:24:39.451Z,98057.78
2022-08-17T06:27:46.470Z,98074.94
2022-08-17T06:30:58.382Z,98060.84
2022-08-17T06:34:06.037Z,98051.56
2022-08-17T06:37:21.424Z,98061.19
2022-08-17T06:40:48.250Z,98059.03
2022-08-17T06:43:58.593Z,98072.84
2022-08-17T06:47:08.064Z,98077.59
2022-08-17T06:50:17.028Z,98088.94
2022-08-17T06:53:26.817Z,98091.38
2022-08-17T06:56:53.313Z,98082.59
2022-08-17T07:00:00.850Z,98076.41
2022-08-17T07:03:11.259Z,98068.47
2022-08-17T07:06:17.495Z,98060.09
2022-08-17T07:09:26.972Z,98060.97
2022-08-17T07:12:38.937Z,98048.97
2022-08-17T07:15:43.316Z,98052.38
2022-08-17T07:18:50.634Z,98051.19
2022-08-17T07:22:01.726Z,98039.19
2022-08-17T07:25:09.478Z,98035.75
2022-08-17T07:28:13.040Z,98037.81
2022-08-17T07:31:17.661Z,98045.09
2022-08-17T07:34:20.410Z,98043.31
2022-08-17T07:37:23.252Z,98038.34
2022-08-17T07:40:32.159Z,98044.47
2022-08-17T07:43:36.971Z,98048.97
2022-08-17T07:47:07.020Z,98058.28
2022-08-17T07:50:26.143Z,98049.00
2022-08-17T07:53:31.170Z,98060.72
2022-08-17T07:56:42.548Z,98068.06
2022-08-17T08:00:16.286Z,98073.38
2022-08-17T08:03:27.057Z,98072.88
2022-08-17T08:06:29.857Z,98075.13
2022-08-17T08:09:34.397Z,98077.72
2022-08-17T08:12:41.128Z,98083.72
2022-08-17T08:15:54.186Z,98092.47
2022-08-17T08:18:59.816Z,98087.63
2022-08-17T08:22:07.795Z,98088.44
2022-08-17T08:25:22.261Z,98093.50
2022-08-17T08:28:31.451Z,98094.94
2022-08-17T08:31:47.810Z,98091.78
2022-08-17T08:35:02.961Z,98095.56
2022-08-17T08:38:11.935Z,98095.50
2022-08-17T08:41:24.628Z,98098.19
2022-08-17T08:45:01.177Z,98103.47
2022-08-17T08:48:23.186Z,98104.91
2022-08-17T08:51:41.834Z,98111.75
2022-08-17T08:54:49.777Z,98109.94
2022-08-17T08:57:58.892Z,98108.91
2022-08-17T09:01:06.125Z,98115.19
2022-08-17T09:04:25.198Z,98110.75
2022-08-17T09:07:36.498Z,98120.25
2022-08-17T09:11:01.220Z,98121.97
2022-08-17T09:14:21.193Z,98118.50
2022-08-17T09:17:34.995Z,98109.72
2022-08-17T09:20:46.621Z,98114.16
2022-08-17T09:24:02.337Z,98104.34
2022-08-17T09:27:08.139Z,98117.59
2022-08-17T09:30:12.903Z,98134.28
2022-08-17T09:33:22.889Z,98131.81
2022-08-17T09:36:29.230Z,98136.16
2022-08-17T09:39:35.794Z,98138.19
2022-08-17T09:42:45.485Z,98144.13
2022-08-17T09:45:51.677Z,98151.03
2022-08-17T09:48:59.356Z,98153.13
2022-08-17T09:52:07.453Z,98146.69
2022-08-17T09:55:10.804Z,98127.09
2022-08-17T09:58:18.948Z,98126.28
2022-08-17T10:01:31.360Z,98128.19
2022-08-17T10:04:44.552Z,98135.16
2022-08-17T10:07:52.601Z,98136.41
2022-08-17T10:11:06.809Z,98154.91
2022-08-17T10:14:37.457Z,98161.13
2022-08-17T10:17:40.615Z,98159.25
2022-08-17T10:20:48.519Z,98157.66
2022-08-17T10:24:13.348Z,98150.94
2022-08-17T10:27:19.119Z,98162.13
2022-08-17T10:30:24.611Z,98174.09
2022-08-17T10:33:33.490Z,98158.81
2022-08-17T10:36:46.087Z,98163.63
2022-08-17T10:39:57.356Z,98183.03
2022-08-17T10:43:05.882Z,98182.44
2022-08-17T10:46:31.122Z,98188.16
2022-08-17T10:49:35.774Z,98196.59
2022-08-17T10:52:50.027Z,98200.13
2022-08-17T10:56:26.724Z,98186.84
2022-08-17T10:59:51.650Z,98191.63
2022-08-17T11:02:55.093Z,98201.16
2022-08-17T11:06:03.130Z,98206.31
2022-08-17T11:09:26.243Z,98219.81
2022-08-17T11:12:32.457Z,98217.00
2022-08-17T11:15:46.161Z,98224.53
2022-08-17T11:19:09.878Z,98236.09
2022-08-17T11:22:57.806Z,98229.31
2022-08-17T11:26:08.334Z,98234.06
2022-08-17T11:29:25.287Z,98232.22
2022-08-17T11:32:38.330Z,98233.72
2022-08-17T11:35:52.881Z,98228.09
2022-08-17T11:39:00.860Z,98242.88
2022-08-17T11:42:07.279Z,98256.91
2022-08-17T11:45:31.813Z,98249.88
2022-08-17T11:49:05.763Z,98234.25
2022-08-17T11:52:36.062Z,98238.97
2022-08-17T11:56:05.019Z,98247.00
2022-08-17T11:59:41.919Z,98238.59
2022-08-17T12:02:48.836Z,98223.66
2022-08-17T12:06:01.788Z,98223.75
2022-08-17T12:09:11.766Z,98215.56
2022-08-17T12:12:15.606Z,98211.66
2022-08-17T12:15:20.362Z,98201.53
2022-08-17T12:18:28.712Z,98187.75
2022-08-17T12:21:43.635Z,98188.44
2022-08-17T12:24:51.506Z,98187.59
2022-08-17T12:28:05.308Z,98182.91
2022-08-17T12:31:23.347Z,98185.88
2022-08-17T12:34:29.277Z,98183.28
2022-08-17T12:37:33.744Z,98170.78
2022-08-17T12:40:36.530Z,98166.88
2022-08-17T12:43:39.215Z,98167.47
2022-08-17T12:46:51.469Z,98154.38
2022-08-17T12:50:08.178Z,98152.81
2022-08-17T12:53:35.094Z,98144.63
2022-08-17T12:56:38.105Z,98137.63
2022-08-17T12:59:43.678Z,98133.03
2022-08-17T13:02:50.699Z,98110.63
2022-08-17T13:06:00.608Z,98101.09
2022-08-17T13:09:10.326Z,98096.97
2022-08-17T13:12:12.930Z,98097.59
2022-08-17T13:15:21.269Z,98098.53
2022-08-17T13:18:39.825Z,98099.44
2022-08-17T13:21:47.912Z,98105.06
2022-08-17T13:24:54.338Z,98107.63
2022-08-17T13:27:57.478Z,98091.00
2022-08-17T13:31:21.889Z,98102.03
2022-08-17T13:34:48.974Z,98094.06
2022-08-17T13:38:06.803Z,98084.34
2022-08-17T13:41:09.488Z,98069.22
2022-08-17T13:44:36.974Z,98067.72
2022-08-17T13:47:41.310Z,98076.97
2022-08-17T13:50:46.391Z,98071.84
2022-08-17T13:53:55.335Z,98072.53
2022-08-17T13:57:07.861Z,98070.00
2022-08-17T14:00:17.498Z,98062.25
2022-08-17T14:03:21.268Z,98055.25
2022-08-17T14:06:51.838Z,98046.25
2022-08-17T14:09:50.830Z,98030.03
2022-08-17T14:12:53.928Z,98019.06
2022-08-17T14:15:56.876Z,98004.88
2022-08-17T14:18:59.718Z,98003.25
2022-08-17T14:22:02.554Z,97998.47
2022-08-17T14:25:08.701Z,97993.94
2022-08-17T14:28:13.460Z,97995.06
2022-08-17T14:31:16.040Z,97999.16
2022-08-17T14:34:18.926Z,98000.84
2022-08-17T14:37:26.280Z,97998.28
2022-08-17T14:40:30.248Z,97990.09
2022-08-17T14:43:34.443Z,97997.19
2022-08-17T14:46:36.994Z,97986.41
2022-08-17T14:49:39.593Z,97987.13
2022-08-17T14:52:42.612Z,97987.22
2022-08-17T14:55:47.244Z,97982.34
2022-08-17T14:58:51.838Z,97991.63
2022-08-17T15:01:55.901Z,98002.22
2022-08-17T15:05:02.554Z,97996.31
2022-08-17T15:08:05.912Z,97987.44
2022-08-17T15:11:12.998Z,97987.72
2022-08-17T15:14:17.187Z,97990.22
2022-08-17T15:17:19.865Z,97997.56
2022-08-17T15:20:27.540Z,97990.34
2022-08-17T15:23:30.158Z,97977.56
2022-08-17T15:26:34.266Z,97972.72
2022-08-17T15:29:36.887Z,97976.13
2022-08-17T15:32:50.819Z,97978.25
2022-08-17T15:35:59.055Z,97974.47
2022-08-17T15:39:01.665Z,97970.41
2022-08-17T15:42:06.082Z,97980.56
2022-08-17T15:45:11.487Z,97971.47
2022-08-17T15:48:15.214Z,97973.88
2022-08-17T15:51:20.681Z,97987.03
2022-08-17T15:54:24.114Z,97967.63
2022-08-17T15:57:28.768Z,97959.50
2022-08-17T16:00:39.802Z,97958.34
2022-08-17T16:04:03.772Z,97961.78
2022-08-17T16:07:07.599Z,97957.91
2022-08-17T16:10:14.177Z,97952.84
2022-08-17T16:13:22.568Z,97951.22
2022-08-17T16:16:26.074Z,97942.97
2022-08-17T16:19:28.828Z,97947.66
2022-08-17T16:22:33.621Z,97935.91
2022-08-17T16:25:38.438Z,97928.84
2022-08-17T16:28:58.431Z,97932.25
2022-08-17T16:32:08.632Z,97933.78
2022-08-17T16:35:14.318Z,97934.28
2022-08-17T16:38:17.152Z,97927.66
2022-08-17T16:41:33.679Z,97932.56
2022-08-17T16:44:37.733Z,97938.31
2022-08-17T16:47:41.764Z,97933.41
2022-08-17T16:51:03.600Z,97938.13
2022-08-17T16:54:07.234Z,97942.03
2022-08-17T16:57:10.023Z,97938.28
2022-08-17T17:00:15.947Z,97923.88
2022-08-17T17:03:21.155Z,97930.88
2022-08-17T17:06:29.410Z,97923.59
2022-08-17T17:09:36.574Z,97913.13
2022-08-17T17:13:01.985Z,97928.00
2022-08-17T17:16:14.100Z,97933.94
2022-08-17T17:19:35.270Z,97944.13
2022-08-17T17:22:48.103Z,97937.81
2022-08-17T17:25:55.694Z,97939.41
2022-08-17T17:29:07.976Z,97944.31
2022-08-17T17:32:20.882Z,97935.69
2022-08-17T17:35:26.550Z,97935.41
2022-08-17T17:38:33.041Z,97929.81
2022-08-17T17:41:41.577Z,97931.84
2022-08-17T17:44:46.165Z,97928.72
2022-08-17T17:47:54.393Z,97920.41
2022-08-17T17:51:13.890Z,97920.66
2022-08-17T17:54:47.565Z,97915.81
2022-08-17T17:57:59.085Z,97921.28
2022-08-17T18:01:14.061Z,97915.78
2022-08-17T18:04:23.278Z,97922.47
2022-08-17T18:07:32.248Z,97916.59
2022-08-17T18:10:44.972Z,97922.94
2022-08-17T18:14:02.920Z,97914.06
2022-08-17T18:17:07.626Z,97919.00
2022-08-17T18:20:11.631Z,97927.91
2022-08-17T18:23:14.449Z,97925.06
2022-08-17T18:26:36.926Z,97932.94
2022-08-17T18:29:44.368Z,97936.53
2022-08-17T18:32:47.314Z,97931.03
2022-08-17T18:35:59.444Z,97942.22
2022-08-17T18:39:11.574Z,97948.13
2022-08-17T18:42:26.152Z,97941.84
2022-08-17T18:45:34.282Z,97944.09
2022-08-17T18:48:52.716Z,97947.06
2022-08-17T18:52:12.963Z,97954.38
2022-08-17T18:55:21.566Z,97958.63
2022-08-17T18:58:26.470Z,97955.13
2022-08-17T19:01:52.214Z,97963.22
2022-08-17T19:05:08.371Z,97976.41
2022-08-17T19:08:22.964Z,97968.63
2022-08-17T19:11:29.089Z,97976.69
2022-08-17T19:14:32.086Z,97991.91
2022-08-17T19:17:42.506Z,97996.78
2022-08-17T19:20:49.129Z,97988.06
2022-08-17T19:23:59.031Z,97986.97
2022-08-17T19:27:14.502Z,97987.47
2022-08-17T19:30:17.890Z,97989.28
2022-08-17T19:33:20.590Z,97983.41
2022-08-17T19:36:37.735Z,97984.25
2022-08-17T19:39:45.493Z,97986.44
2022-08-17T19:42:54.126Z,97986.44
2022-08-17T19:46:05.878Z,97978.47
2022-08-17T19:49:14.544Z,97969.84
2022-08-17T19:52:32.019Z,97958.94
2022-08-17T19:55:44.859Z,97966.56
2022-08-17T19:58:57.972Z,97977.38
2022-08-17T20:02:04.146Z,97974.88
2022-08-17T20:05:11.551Z,97967.22
2022-08-17T20:08:18.744Z,97956.63
2022-08-17T20:11:29.115Z,97950.59
2022-08-17T20:14:36.049Z,97964.25
2022-08-17T20:17:42.120Z,97980.03
2022-08-17T20:20:50.147Z,97982.34
2022-08-17T20:24:01.219Z,97983.16
2022-08-17T20:27:14.403Z,97987.91
2022-08-17T20:30:33.045Z,97990.44
2022-08-17T20:33:38.617Z,97982.72
2022-08-17T20:36:58.953Z,97975.34
2022-08-17T20:40:22.145Z,97986.09
2022-08-17T20:43:51.095Z,97986.16
2022-08-17T20:46:58.095Z,97984.25
2022-08-17T20:50:03.158Z,97989.84
2022-08-17T20:53:08.605Z,98000.22
2022-08-17T20:56:11.782Z,98007.00
2022-08-17T21:02:44.661Z,98015.75
2022-08-17T21:06:00.081Z,98020.03
2022-08-17T21:09:30.222Z,98025.06
2022-08-17T21:12:44.684Z,98027.50
2022-08-17T21:15:51.699Z,98025.34
2022-08-17T21:19:05.107Z,98029.28
2022-08-17T21:22:17.887Z,98034.31
2022-08-17T21:25:32.384Z,98032.69
2022-08-17T21:29:00.929Z,98034.75
2022-08-17T21:32:24.229Z,98035.13
2022-08-17T21:35:31.581Z,98042.63
2022-08-17T21:38:44.996Z,98038.81
2022-08-17T21:41:52.829Z,98047.03
2022-08-17T21:44:58.965Z,98055.75
2022-08-17T21:48:12.664Z,98066.91
2022-08-17T21:51:20.616Z,98076.50
2022-08-17T21:54:33.896Z,98078.97
2022-08-17T21:57:52.796Z,98098.44
2022-08-17T22:01:14.735Z,98108.59
2022-08-17T22:04:20.782Z,98113.19
2022-08-17T22:07:35.875Z,98129.56
2022-08-17T22:10:41.285Z,98144.41
2022-08-17T22:13:44.253Z,98157.09
2022-08-17T22:16:46.730Z,98159.25
2022-08-17T22:19:52.703Z,98172.97
2022-08-17T22:23:29.476Z,98186.97
2022-08-17T22:27:01.666Z,98191.25
2022-08-17T22:30:18.661Z,98198.63
2022-08-17T22:33:40.920Z,98223.06
2022-08-17T22:36:43.784Z,98221.13
2022-08-17T22:39:58.637Z,98231.41
2022-08-17T22:43:03.342Z,98237.00
2022-08-17T22:46:08.575Z,98248.50
2022-08-17T22:49:11.324Z,98247.72
2022-08-17T22:52:32.078Z,98250.88
2022-08-17T22:55:53.968Z,98248.47
2022-08-17T22:59:17.072Z,98251.28
2022-08-17T23:02:23.863Z,98267.59
2022-08-17T23:05:26.820Z,98268.03
2022-08-17T23:08:29.576Z,98267.72
2022-08-17T23:11:48.810Z,98270.13
2022-08-17T23:15:00.546Z,98276.06
2022-08-17T23:18:05.274Z,98274.88
2022-08-17T23:21:08.229Z,98268.50
2022-08-17T23:24:10.961Z,98268.50
2022-08-17T23:27:14.956Z,98278.00
2022-08-17T23:30:17.862Z,98279.91
2022-08-17T23:33:22.883Z,98278.72
2022-08-17T23:36:27.038Z,98273.19
2022-08-17T23:39:30.208Z,98271.94
2022-08-17T23:42:34.844Z,98274.75
2022-08-17T23:45:38.721Z,98281.84
2022-08-17T23:48:42.037Z,98290.59
2022-08-17T23:51:45.686Z,98290.66
2022-08-17T23:54:48.648Z,98285.13
2022-08-17T23:57:53.043Z,98287.91
